KOXD/OXD METAR and TAF weather

Enter ICAO airport designator
Station Type Date Time Source
KOXD METAR 2021/05/15 22:59 UTC NOAA

KOXD 152259Z AUTO 20004KT 10SM SCT110 20/03 A3020 RMK AO2


Station Type Date Time Source
KOXD Decoded METAR 2021/05/15 22:59 UTC NOAA

Station name not available
May 15, 2021 - 06:59 PM EDT / 2021.05.15 2259 UTC
Wind: from the SSW (200 degrees) at 5 MPH (4 KT):0
Visibility: 10 mile(s):0
Sky conditions: partly cloudy
Temperature: 68 F (20 C)
Dew Point: 37 F (3 C)
Relative Humidity: 32%
Pressure (altimeter): 30.2 in. Hg (1022 hPa)
ob: KOXD 152259Z AUTO 20004KT 10SM SCT110 20/03 A3020 RMK AO2
cycle: 23

Station Type Date Time Source
KOXD TAF UTC NOAA

Error!

Example: see airport list